createdAt,value
2023-08-17T00:00:04.033Z,23.38
2023-08-17T00:02:31.033Z,23.29
2023-08-17T00:04:58.065Z,23.06
2023-08-17T00:07:28.077Z,23.17
2023-08-17T00:09:55.283Z,23.33
2023-08-17T00:12:22.326Z,23.27
2023-08-17T00:14:49.504Z,23.08
2023-08-17T00:17:16.526Z,22.89
2023-08-17T00:19:43.686Z,23.04
2023-08-17T00:22:10.928Z,22.99
2023-08-17T00:24:40.607Z,22.97
2023-08-17T00:27:07.670Z,23.04
2023-08-17T00:29:34.726Z,22.83
2023-08-17T00:32:01.827Z,22.75
2023-08-17T00:34:29.062Z,22.73
2023-08-17T00:36:56.125Z,22.60
2023-08-17T00:39:23.132Z,22.73
2023-08-17T00:41:53.046Z,22.86
2023-08-17T00:44:20.488Z,22.77
2023-08-17T00:46:47.578Z,22.79
2023-08-17T00:49:15.004Z,22.78
2023-08-17T00:51:42.634Z,22.79
2023-08-17T00:54:11.859Z,22.86
2023-08-17T00:56:39.098Z,22.85
2023-08-17T00:59:09.948Z,22.70
2023-08-17T01:01:37.236Z,22.75
2023-08-17T01:04:04.818Z,22.81
2023-08-17T01:06:31.859Z,22.65
2023-08-17T01:08:59.064Z,22.69
2023-08-17T01:11:35.747Z,22.67
2023-08-17T01:14:11.315Z,22.60
2023-08-17T01:16:45.077Z,22.61
2023-08-17T01:19:19.747Z,22.75
2023-08-17T01:21:51.898Z,22.83
2023-08-17T01:24:21.560Z,22.69
2023-08-17T01:26:48.568Z,22.72
2023-08-17T01:29:16.350Z,22.65
2023-08-17T01:31:55.321Z,22.63
2023-08-17T01:34:27.716Z,22.63
2023-08-17T01:36:58.658Z,22.53
2023-08-17T01:39:41.632Z,22.56
2023-08-17T01:42:09.748Z,22.57
2023-08-17T01:44:37.104Z,22.54
2023-08-17T01:47:04.641Z,22.51
2023-08-17T01:49:31.671Z,22.53
2023-08-17T01:51:58.740Z,22.48
2023-08-17T01:54:28.440Z,22.46
2023-08-17T01:56:55.478Z,22.47
2023-08-17T01:59:22.547Z,22.38
2023-08-17T02:01:49.574Z,22.44
2023-08-17T02:04:17.240Z,22.54
2023-08-17T02:06:44.242Z,22.58
2023-08-17T02:09:11.453Z,22.45
2023-08-17T02:11:41.065Z,22.43
2023-08-17T02:14:08.152Z,22.48
2023-08-17T02:16:35.266Z,22.38
2023-08-17T02:19:02.373Z,22.37
2023-08-17T02:21:29.445Z,22.38
2023-08-17T02:23:56.484Z,22.42
2023-08-17T02:26:23.541Z,22.35
2023-08-17T02:28:53.276Z,22.34
2023-08-17T02:31:20.407Z,22.46
2023-08-17T02:33:47.417Z,22.37
2023-08-17T02:36:14.491Z,22.38
2023-08-17T02:38:41.604Z,22.35
2023-08-17T02:41:08.846Z,22.43
2023-08-17T02:43:35.909Z,22.30
2023-08-17T02:46:05.666Z,22.17
2023-08-17T02:48:33.302Z,22.23
2023-08-17T02:51:00.588Z,22.25
2023-08-17T02:53:27.645Z,22.25
2023-08-17T02:55:54.665Z,22.32
2023-08-17T02:58:21.833Z,22.22
2023-08-17T03:00:48.890Z,22.17
2023-08-17T03:03:18.578Z,22.18
2023-08-17T03:05:45.654Z,22.20
2023-08-17T03:08:12.779Z,22.27
2023-08-17T03:10:39.849Z,22.11
2023-08-17T03:13:06.917Z,22.14
2023-08-17T03:15:34.069Z,22.18
2023-08-17T03:18:01.214Z,22.21
2023-08-17T03:20:30.904Z,22.09
2023-08-17T03:22:57.978Z,22.08
2023-08-17T03:25:25.104Z,22.08
2023-08-17T03:27:52.175Z,22.07
2023-08-17T03:30:19.273Z,22.04
2023-08-17T03:32:46.306Z,22.04
2023-08-17T03:35:13.506Z,21.98
2023-08-17T03:37:43.236Z,22.06
2023-08-17T03:40:10.653Z,21.94
2023-08-17T03:42:37.659Z,21.89
2023-08-17T03:45:06.065Z,21.96
2023-08-17T03:47:33.138Z,21.90
2023-08-17T03:50:00.230Z,21.90
2023-08-17T03:52:27.310Z,21.98
2023-08-17T03:54:56.986Z,21.88
2023-08-17T03:57:24.168Z,21.99
2023-08-17T03:59:51.500Z,21.87
2023-08-17T04:02:18.495Z,21.78
2023-08-17T04:04:45.537Z,21.76
2023-08-17T04:07:12.670Z,21.89
2023-08-17T04:09:44.635Z,21.95
2023-08-17T04:12:14.284Z,21.84
2023-08-17T04:14:41.327Z,21.82
2023-08-17T04:17:08.430Z,21.74
2023-08-17T04:19:35.462Z,21.59
2023-08-17T04:22:02.526Z,21.70
2023-08-17T04:24:29.568Z,21.68
2023-08-17T04:26:56.830Z,21.77
2023-08-17T04:29:26.510Z,21.74
2023-08-17T04:31:54.310Z,21.70
2023-08-17T04:34:21.502Z,21.59
2023-08-17T04:36:48.569Z,21.49
2023-08-17T04:39:15.686Z,21.50
2023-08-17T04:41:42.975Z,21.67
2023-08-17T04:44:10.078Z,21.60
2023-08-17T04:46:39.765Z,21.62
2023-08-17T04:49:06.849Z,21.51
2023-08-17T04:51:33.882Z,21.80
2023-08-17T04:54:00.948Z,21.83
2023-08-17T04:56:28.018Z,21.81
2023-08-17T04:58:55.107Z,21.88
2023-08-17T05:01:22.171Z,21.73
2023-08-17T05:03:51.931Z,21.84
2023-08-17T05:06:19.046Z,21.91
2023-08-17T05:08:46.066Z,22.06
2023-08-17T05:11:13.315Z,21.99
2023-08-17T05:13:40.348Z,21.96
2023-08-17T05:16:07.473Z,21.90
2023-08-17T05:18:34.562Z,21.93
2023-08-17T05:21:04.457Z,22.23
2023-08-17T05:23:31.495Z,22.23
2023-08-17T05:25:58.671Z,21.96
2023-08-17T05:28:25.813Z,22.09
2023-08-17T05:30:52.849Z,22.24
2023-08-17T05:33:19.880Z,22.21
2023-08-17T05:35:46.908Z,22.23
2023-08-17T05:38:16.544Z,22.28
2023-08-17T05:40:43.609Z,22.27
2023-08-17T05:43:10.679Z,22.11
2023-08-17T05:45:37.698Z,22.05
2023-08-17T05:48:06.370Z,21.88
2023-08-17T05:50:33.665Z,21.93
2023-08-17T05:53:02.164Z,21.96
2023-08-17T05:55:32.432Z,21.87
2023-08-17T05:58:01.407Z,21.82
2023-08-17T06:00:28.447Z,21.82
2023-08-17T06:02:55.719Z,21.80
2023-08-17T06:05:24.671Z,21.88
2023-08-17T06:07:51.771Z,22.02
2023-08-17T06:10:18.935Z,22.02
2023-08-17T06:12:48.560Z,22.03
2023-08-17T06:15:15.943Z,22.02
2023-08-17T06:17:44.013Z,22.19
2023-08-17T06:20:13.124Z,21.98
2023-08-17T06:22:40.198Z,22.05
2023-08-17T06:25:08.304Z,22.13
2023-08-17T06:27:35.655Z,22.04
2023-08-17T06:30:06.625Z,22.33
2023-08-17T06:32:33.752Z,22.29
2023-08-17T06:35:00.951Z,22.49
2023-08-17T06:37:28.371Z,22.43
2023-08-17T06:39:55.606Z,22.31
2023-08-17T06:42:23.054Z,22.35
2023-08-17T06:44:50.136Z,22.43
2023-08-17T06:47:19.850Z,22.55
2023-08-17T06:49:47.056Z,22.41
2023-08-17T06:52:14.118Z,22.55
2023-08-17T06:54:41.139Z,22.65
2023-08-17T06:57:08.272Z,22.77
2023-08-17T06:59:35.326Z,22.88
2023-08-17T07:02:02.749Z,22.95
2023-08-17T07:04:32.637Z,22.89
2023-08-17T07:07:00.122Z,22.93
2023-08-17T07:09:27.277Z,22.86
2023-08-17T07:11:54.357Z,22.83
2023-08-17T07:14:23.089Z,22.92
2023-08-17T07:16:50.401Z,22.92
2023-08-17T07:19:17.603Z,22.94
2023-08-17T07:21:47.282Z,23.09
2023-08-17T07:24:16.627Z,23.19
2023-08-17T07:26:44.922Z,22.95
2023-08-17T07:29:12.203Z,23.26
2023-08-17T07:31:40.705Z,23.23
2023-08-17T07:34:09.459Z,23.28
2023-08-17T07:36:36.591Z,23.45
2023-08-17T07:39:06.290Z,23.47
2023-08-17T07:41:33.271Z,23.37
2023-08-17T07:44:00.363Z,23.66
2023-08-17T07:46:27.699Z,23.95
2023-08-17T07:48:54.866Z,23.57
2023-08-17T07:51:24.980Z,23.76
2023-08-17T07:53:52.149Z,23.79
2023-08-17T07:56:21.900Z,23.98
2023-08-17T07:58:50.335Z,24.23
2023-08-17T08:01:20.979Z,24.28
2023-08-17T08:03:48.089Z,24.28
2023-08-17T08:06:15.125Z,24.24
2023-08-17T08:08:42.149Z,24.19
2023-08-17T08:11:09.417Z,24.07
2023-08-17T08:13:39.195Z,24.08
2023-08-17T08:16:07.774Z,24.13
2023-08-17T08:18:34.792Z,24.25
2023-08-17T08:21:01.958Z,24.41
2023-08-17T08:23:29.081Z,24.48
2023-08-17T08:25:56.219Z,24.36
2023-08-17T08:28:23.289Z,24.37
2023-08-17T08:30:53.158Z,24.34
2023-08-17T08:33:23.539Z,24.27
2023-08-17T08:35:50.607Z,24.13
2023-08-17T08:38:17.645Z,24.34
2023-08-17T08:40:48.210Z,24.47
2023-08-17T08:43:15.998Z,24.81
2023-08-17T08:45:43.536Z,24.90
2023-08-17T08:48:14.943Z,24.85
2023-08-17T08:50:42.495Z,24.74
2023-08-17T08:53:15.011Z,24.80
2023-08-17T08:55:48.740Z,24.62
2023-08-17T08:58:17.586Z,24.93
2023-08-17T09:00:48.283Z,25.16
2023-08-17T09:03:19.006Z,25.49
2023-08-17T09:05:49.488Z,25.73
2023-08-17T09:08:20.112Z,26.03
2023-08-17T09:10:48.350Z,25.90
2023-08-17T09:13:15.917Z,25.91
2023-08-17T09:15:42.981Z,25.62
2023-08-17T09:18:13.787Z,25.90
2023-08-17T09:20:47.953Z,25.99
2023-08-17T09:23:17.526Z,25.79
2023-08-17T09:25:46.324Z,25.52
2023-08-17T09:28:14.626Z,25.73
2023-08-17T09:30:52.140Z,25.92
2023-08-17T09:33:19.255Z,25.80
2023-08-17T09:35:49.729Z,25.91
2023-08-17T09:38:16.788Z,26.13
2023-08-17T09:40:44.133Z,26.31
2023-08-17T09:43:12.069Z,26.21
2023-08-17T09:45:39.870Z,26.34
2023-08-17T09:48:08.437Z,26.40
2023-08-17T09:50:39.030Z,26.75
2023-08-17T09:53:13.228Z,26.86
2023-08-17T09:55:42.260Z,26.83
2023-08-17T09:58:09.289Z,26.83
2023-08-17T10:00:39.119Z,26.48
2023-08-17T10:03:08.385Z,26.50
2023-08-17T10:05:41.272Z,26.55
2023-08-17T10:08:12.923Z,27.16
2023-08-17T10:10:44.211Z,27.65
2023-08-17T10:13:12.938Z,27.56
2023-08-17T10:15:49.874Z,26.86
2023-08-17T10:18:28.023Z,26.95
2023-08-17T10:21:02.447Z,26.90
2023-08-17T10:23:33.553Z,26.51
2023-08-17T10:26:02.558Z,26.17
2023-08-17T10:28:32.047Z,27.03
2023-08-17T10:31:00.084Z,27.23
2023-08-17T10:33:29.826Z,27.40
2023-08-17T10:35:58.546Z,27.92
2023-08-17T10:38:27.351Z,28.38
2023-08-17T10:43:57.476Z,28.15
2023-08-17T10:46:35.574Z,28.27
2023-08-17T10:49:05.141Z,28.32
2023-08-17T10:51:32.303Z,28.48
2023-08-17T10:54:03.043Z,27.89
2023-08-17T10:56:34.242Z,27.71
2023-08-17T10:59:02.068Z,27.82
2023-08-17T11:01:37.441Z,27.79
2023-08-17T11:04:16.877Z,27.64
2023-08-17T11:06:44.746Z,27.46
2023-08-17T11:09:11.879Z,27.77
2023-08-17T11:11:41.814Z,28.10
2023-08-17T11:14:10.004Z,28.33
2023-08-17T11:16:37.108Z,27.76
2023-08-17T11:19:13.868Z,28.10
2023-08-17T11:21:43.288Z,28.40
2023-08-17T11:24:11.624Z,28.37
2023-08-17T11:26:42.465Z,28.60
2023-08-17T11:29:09.713Z,29.08
2023-08-17T11:31:36.849Z,28.87
2023-08-17T11:34:04.250Z,29.11
2023-08-17T11:36:31.296Z,28.71
2023-08-17T11:38:59.392Z,28.21
2023-08-17T11:41:26.596Z,28.05
2023-08-17T11:43:56.499Z,27.94
2023-08-17T11:48:55.627Z,28.43
2023-08-17T11:51:30.081Z,28.52
2023-08-17T11:54:00.098Z,28.45
2023-08-17T11:56:27.303Z,27.66
2023-08-17T11:58:56.948Z,27.29
2023-08-17T12:01:24.163Z,27.21
2023-08-17T12:03:51.577Z,27.59
2023-08-17T12:06:18.837Z,27.80
2023-08-17T12:08:48.912Z,28.08
2023-08-17T12:11:17.188Z,28.34
2023-08-17T12:13:44.350Z,28.53
2023-08-17T12:16:19.310Z,28.30
2023-08-17T12:18:46.555Z,29.34
2023-08-17T12:21:13.723Z,30.54
2023-08-17T12:23:41.246Z,31.31
2023-08-17T12:26:08.364Z,31.23
2023-08-17T12:28:35.481Z,31.13
2023-08-17T12:31:04.600Z,31.26
2023-08-17T12:33:34.377Z,31.49
2023-08-17T12:36:01.486Z,31.74
2023-08-17T12:38:28.733Z,31.56
2023-08-17T12:40:55.860Z,32.06
2023-08-17T12:43:23.022Z,32.67
2023-08-17T12:45:50.216Z,33.05
2023-08-17T12:48:17.451Z,33.23
2023-08-17T12:50:49.864Z,32.88
2023-08-17T12:53:17.086Z,33.74
2023-08-17T12:55:44.487Z,33.74
2023-08-17T12:58:11.639Z,33.91
2023-08-17T13:00:38.895Z,33.65
2023-08-17T13:03:06.167Z,32.99
2023-08-17T13:05:33.910Z,33.36
2023-08-17T13:08:04.175Z,33.19
2023-08-17T13:10:31.318Z,33.11
2023-08-17T13:12:58.493Z,33.32
2023-08-17T13:15:27.613Z,32.76
2023-08-17T13:17:57.737Z,32.62
2023-08-17T13:20:25.067Z,33.07
2023-08-17T13:22:52.098Z,33.45
2023-08-17T13:25:21.970Z,32.85
2023-08-17T13:27:49.160Z,32.73
2023-08-17T13:30:16.291Z,33.84
2023-08-17T13:32:44.999Z,33.52
2023-08-17T13:35:15.869Z,34.68
2023-08-17T13:37:43.039Z,35.10
2023-08-17T13:40:11.382Z,35.11
2023-08-17T13:42:42.279Z,36.32
2023-08-17T13:45:09.941Z,36.49
2023-08-17T13:47:37.139Z,36.93
2023-08-17T13:50:07.604Z,37.12
2023-08-17T13:52:34.832Z,37.28
2023-08-17T13:55:02.124Z,37.66
2023-08-17T13:57:29.255Z,37.36
2023-08-17T13:59:59.060Z,36.62
2023-08-17T14:02:29.842Z,38.05
2023-08-17T14:04:58.291Z,39.07
2023-08-17T14:07:25.565Z,39.76
2023-08-17T14:10:05.642Z,40.88
2023-08-17T14:12:34.406Z,44.03
2023-08-17T14:15:04.878Z,45.19
2023-08-17T14:17:31.971Z,42.09
2023-08-17T14:19:59.064Z,41.80
2023-08-17T14:22:26.972Z,45.35
2023-08-17T14:24:54.311Z,41.98
2023-08-17T14:27:21.727Z,42.10
2023-08-17T14:29:48.993Z,43.56
2023-08-17T14:32:18.890Z,46.88
2023-08-17T14:34:46.023Z,43.99
2023-08-17T14:37:13.106Z,46.07
2023-08-17T14:39:41.880Z,44.94
2023-08-17T14:42:09.006Z,48.53
2023-08-17T14:44:41.019Z,48.74
2023-08-17T14:47:08.060Z,49.50
2023-08-17T14:49:37.811Z,50.05
2023-08-17T14:52:06.170Z,49.94
2023-08-17T14:54:33.583Z,51.01
2023-08-17T14:57:00.781Z,50.12
2023-08-17T14:59:27.877Z,51.03
2023-08-17T15:01:55.094Z,51.70
2023-08-17T15:04:25.725Z,50.63
2023-08-17T15:06:56.008Z,51.64
2023-08-17T15:09:23.076Z,51.39
2023-08-17T15:11:55.275Z,47.35
2023-08-17T15:14:25.288Z,42.43
2023-08-17T15:16:59.950Z,41.36
2023-08-17T15:19:39.234Z,39.14
2023-08-17T15:22:15.511Z,39.25
2023-08-17T15:24:43.040Z,38.59
2023-08-17T15:27:10.246Z,39.17
2023-08-17T15:29:37.353Z,39.01
2023-08-17T15:32:04.783Z,38.33
2023-08-17T15:34:31.909Z,37.56
2023-08-17T15:36:58.979Z,36.86
2023-08-17T15:39:28.705Z,35.35
2023-08-17T15:41:57.061Z,35.09
2023-08-17T15:44:24.116Z,34.86
2023-08-17T15:46:52.548Z,34.56
2023-08-17T15:49:22.783Z,34.13
2023-08-17T15:51:50.062Z,34.51
2023-08-17T15:54:29.627Z,34.09
2023-08-17T15:57:04.286Z,33.82
2023-08-17T15:59:31.683Z,33.68
2023-08-17T16:01:58.888Z,33.23
2023-08-17T16:04:26.043Z,33.01
2023-08-17T16:06:53.252Z,32.88
2023-08-17T16:09:21.710Z,33.00
2023-08-17T16:11:48.861Z,32.79
2023-08-17T16:14:18.539Z,32.62
2023-08-17T16:16:45.985Z,32.43
2023-08-17T16:19:13.318Z,32.49
2023-08-17T16:21:40.400Z,32.33
2023-08-17T16:24:07.803Z,32.06
2023-08-17T16:26:35.570Z,32.10
2023-08-17T16:29:02.868Z,31.78
2023-08-17T16:31:35.373Z,31.57
2023-08-17T16:34:02.641Z,31.49
2023-08-17T16:36:29.710Z,31.21
2023-08-17T16:38:56.841Z,31.39
2023-08-17T16:41:24.013Z,31.28
2023-08-17T16:43:51.119Z,31.15
2023-08-17T16:46:18.231Z,31.10
2023-08-17T16:48:47.960Z,30.97
2023-08-17T16:51:15.080Z,30.92
2023-08-17T16:53:44.496Z,31.21
2023-08-17T16:56:11.688Z,31.08
2023-08-17T16:58:40.051Z,31.05
2023-08-17T17:01:14.495Z,31.01
2023-08-17T17:03:43.514Z,31.02
2023-08-17T17:06:13.206Z,32.22
2023-08-17T17:08:40.316Z,32.38
2023-08-17T17:11:07.452Z,31.97
2023-08-17T17:13:34.575Z,32.44
2023-08-17T17:16:01.914Z,31.76
2023-08-17T17:18:29.029Z,31.23
2023-08-17T17:20:56.170Z,30.84
2023-08-17T17:23:25.919Z,30.70
2023-08-17T17:25:53.007Z,30.69
2023-08-17T17:28:20.115Z,30.37
2023-08-17T17:30:47.207Z,30.17
2023-08-17T17:33:14.459Z,30.19
2023-08-17T17:35:41.511Z,30.04
2023-08-17T17:38:08.623Z,29.62
2023-08-17T17:40:38.243Z,29.63
2023-08-17T17:43:05.444Z,29.72
2023-08-17T17:45:32.521Z,29.68
2023-08-17T17:47:59.646Z,29.68
2023-08-17T17:50:26.879Z,29.61
2023-08-17T17:52:53.995Z,29.37
2023-08-17T17:55:21.257Z,29.32
2023-08-17T17:57:50.872Z,29.27
2023-08-17T18:00:18.279Z,29.16
2023-08-17T18:02:45.427Z,28.94
2023-08-17T18:05:12.655Z,28.88
2023-08-17T18:07:39.685Z,28.84
2023-08-17T18:10:08.097Z,28.76
2023-08-17T18:12:35.186Z,28.60
2023-08-17T18:15:06.021Z,28.77
2023-08-17T18:17:33.088Z,28.83
2023-08-17T18:20:00.176Z,28.52
2023-08-17T18:22:27.363Z,28.47
2023-08-17T18:24:54.530Z,28.42
2023-08-17T18:27:21.599Z,28.35
2023-08-17T18:29:51.496Z,28.21
2023-08-17T18:32:21.170Z,28.22
2023-08-17T18:34:48.232Z,28.11
2023-08-17T18:37:15.256Z,28.09
2023-08-17T18:39:42.280Z,27.95
2023-08-17T18:42:09.364Z,27.91
2023-08-17T18:44:36.416Z,27.94
2023-08-17T18:47:03.818Z,27.85
2023-08-17T18:49:33.735Z,27.67
2023-08-17T18:52:00.866Z,27.53
2023-08-17T18:54:27.958Z,27.49
2023-08-17T18:56:55.076Z,27.39
2023-08-17T18:59:22.516Z,27.26
2023-08-17T19:01:49.695Z,27.24
2023-08-17T19:04:16.870Z,27.16
2023-08-17T19:06:46.694Z,27.15
2023-08-17T19:09:13.759Z,27.12
2023-08-17T19:11:40.857Z,27.10
2023-08-17T19:14:07.940Z,27.03
2023-08-17T19:16:35.152Z,26.95
2023-08-17T19:19:07.806Z,26.79
2023-08-17T19:21:34.886Z,26.85
2023-08-17T19:24:04.901Z,26.88
2023-08-17T19:26:32.021Z,26.86
2023-08-17T19:28:59.246Z,26.72
2023-08-17T19:31:26.422Z,26.72
2023-08-17T19:33:55.697Z,26.67
2023-08-17T19:36:22.822Z,26.52
2023-08-17T19:38:49.994Z,26.58
2023-08-17T19:41:19.604Z,26.50
2023-08-17T19:43:46.822Z,26.35
2023-08-17T19:46:14.045Z,26.34
2023-08-17T19:48:41.151Z,26.29
2023-08-17T19:51:08.217Z,26.29
2023-08-17T19:53:35.339Z,26.25
2023-08-17T19:56:02.498Z,26.31
2023-08-17T19:58:32.146Z,26.32
2023-08-17T20:01:04.837Z,26.18
2023-08-17T20:03:32.110Z,26.18
2023-08-17T20:05:59.310Z,26.16
2023-08-17T20:08:26.417Z,26.13
2023-08-17T20:10:53.608Z,26.16
2023-08-17T20:13:20.692Z,26.07
2023-08-17T20:15:54.294Z,26.07
2023-08-17T20:18:21.382Z,26.10
2023-08-17T20:20:51.727Z,26.11
2023-08-17T20:23:18.912Z,26.08
2023-08-17T20:25:46.136Z,25.93
2023-08-17T20:28:13.189Z,25.85
2023-08-17T20:30:40.235Z,25.71
2023-08-17T20:33:10.161Z,25.79
2023-08-17T20:35:37.335Z,25.77
2023-08-17T20:38:04.972Z,25.69
2023-08-17T20:40:32.238Z,25.73
2023-08-17T20:42:59.469Z,25.77
2023-08-17T20:45:26.575Z,25.80
2023-08-17T20:47:54.843Z,25.80
2023-08-17T20:50:24.558Z,25.76
2023-08-17T20:52:51.694Z,25.78
2023-08-17T20:55:18.898Z,25.76
2023-08-17T20:57:45.956Z,25.66
2023-08-17T21:00:13.718Z,25.69
2023-08-17T21:02:41.138Z,25.78
2023-08-17T21:05:09.157Z,25.99
2023-08-17T21:07:38.905Z,25.94
2023-08-17T21:10:07.584Z,25.96
2023-08-17T21:12:34.657Z,25.89
2023-08-17T21:15:01.904Z,25.95
2023-08-17T21:17:29.292Z,25.95
2023-08-17T21:19:56.662Z,25.77
2023-08-17T21:22:23.835Z,25.71
2023-08-17T21:24:54.120Z,25.78
2023-08-17T21:27:21.295Z,25.87
2023-08-17T21:29:48.492Z,25.79
2023-08-17T21:32:15.590Z,25.73
2023-08-17T21:34:42.749Z,25.77
2023-08-17T21:37:10.005Z,25.70
2023-08-17T21:39:37.492Z,25.41
2023-08-17T21:42:07.522Z,25.55
2023-08-17T21:44:34.668Z,25.45
2023-08-17T21:47:01.804Z,25.38
2023-08-17T21:49:28.959Z,25.52
2023-08-17T21:51:56.039Z,25.55
2023-08-17T21:54:23.118Z,25.46
2023-08-17T21:56:50.183Z,25.63
2023-08-17T21:59:19.875Z,25.48
2023-08-17T22:01:47.949Z,25.43
2023-08-17T22:04:15.010Z,25.45
2023-08-17T22:06:42.058Z,25.45
2023-08-17T22:09:09.247Z,25.40
2023-08-17T22:11:36.291Z,25.60
2023-08-17T22:14:03.503Z,25.76
2023-08-17T22:16:33.199Z,25.63
2023-08-17T22:19:00.301Z,25.48
2023-08-17T22:21:27.421Z,25.39
2023-08-17T22:23:54.532Z,25.53
2023-08-17T22:26:21.631Z,25.61
2023-08-17T22:28:48.714Z,25.72
2023-08-17T22:31:15.854Z,25.51
2023-08-17T22:33:45.677Z,25.38
2023-08-17T22:36:12.824Z,25.28
2023-08-17T22:38:40.731Z,25.21
2023-08-17T22:41:07.920Z,25.21
2023-08-17T22:43:35.010Z,25.22
2023-08-17T22:46:03.249Z,25.24
2023-08-17T22:48:30.409Z,25.22
2023-08-17T22:51:00.070Z,25.34
2023-08-17T22:53:27.186Z,25.29
2023-08-17T22:55:54.325Z,25.27
2023-08-17T22:58:21.561Z,25.39
2023-08-17T23:00:51.565Z,25.31
2023-08-17T23:03:18.661Z,25.15
2023-08-17T23:05:45.703Z,25.19
2023-08-17T23:08:15.450Z,25.25
2023-08-17T23:10:42.578Z,25.21
2023-08-17T23:13:09.691Z,25.19
2023-08-17T23:15:36.990Z,24.95
2023-08-17T23:18:04.473Z,24.91
2023-08-17T23:20:34.642Z,24.87
2023-08-17T23:23:01.708Z,25.05
2023-08-17T23:25:31.416Z,25.01
2023-08-17T23:27:58.532Z,24.94
2023-08-17T23:30:25.614Z,24.96
2023-08-17T23:32:52.840Z,24.91
2023-08-17T23:35:19.966Z,24.94
2023-08-17T23:37:47.023Z,24.97
2023-08-17T23:40:14.109Z,25.01
2023-08-17T23:42:44.636Z,25.04
2023-08-17T23:45:11.667Z,24.79
2023-08-17T23:47:38.746Z,24.85
2023-08-17T23:50:06.930Z,24.81
2023-08-17T23:52:34.033Z,24.74
2023-08-17T23:55:01.076Z,24.68
2023-08-17T23:57:28.462Z,24.67
2023-08-17T23:59:58.274Z,24.68
